createdAt,value
2019-01-30T00:01:42.195Z,15.20
2019-01-30T00:04:09.712Z,15.67
2019-01-30T00:06:37.097Z,15.27
2019-01-30T00:09:08.491Z,15.00
2019-01-30T00:11:36.122Z,15.83
2019-01-30T00:14:04.217Z,16.80
2019-01-30T00:16:31.731Z,15.90
2019-01-30T00:18:59.297Z,17.17
2019-01-30T00:21:27.140Z,14.60
2019-01-30T00:24:14.723Z,15.47
2019-01-30T00:26:42.584Z,14.57
2019-01-30T00:29:10.705Z,14.87
2019-01-30T00:31:39.666Z,15.85
2019-01-30T00:34:07.199Z,14.97
2019-01-30T00:36:34.879Z,14.93
2019-01-30T00:39:04.668Z,15.00
2019-01-30T00:41:34.186Z,15.20
2019-01-30T00:44:01.723Z,15.57
2019-01-30T00:46:29.254Z,15.68
2019-01-30T00:48:56.901Z,16.67
2019-01-30T00:51:24.494Z,15.60
2019-01-30T00:53:52.074Z,17.60
2019-01-30T00:56:19.635Z,15.27
2019-01-30T00:58:47.110Z,15.93
2019-01-30T01:01:15.146Z,15.03
2019-01-30T01:03:42.840Z,16.23
2019-01-30T01:06:10.650Z,15.20
2019-01-30T01:08:38.308Z,15.60
2019-01-30T01:11:06.099Z,17.70
2019-01-30T01:13:33.764Z,15.67
2019-01-30T01:16:20.868Z,15.55
2019-01-30T01:18:48.621Z,14.50
2019-01-30T01:21:16.172Z,14.23
2019-01-30T01:23:43.652Z,16.52
2019-01-30T01:26:11.347Z,14.70
2019-01-30T01:28:38.955Z,14.17
2019-01-30T01:31:06.579Z,13.90
2019-01-30T01:33:34.267Z,14.03
2019-01-30T01:36:02.433Z,16.37
2019-01-30T01:38:29.973Z,14.47
2019-01-30T01:40:57.615Z,15.63
2019-01-30T01:43:25.228Z,13.85
2019-01-30T01:45:52.651Z,15.30
2019-01-30T01:48:20.168Z,13.93
2019-01-30T01:50:47.659Z,13.78
2019-01-30T01:53:15.299Z,13.23
2019-01-30T01:55:46.361Z,13.17
2019-01-30T01:58:14.040Z,12.90
2019-01-30T02:00:41.618Z,12.60
2019-01-30T02:03:09.185Z,13.33
2019-01-30T02:05:36.798Z,13.83
2019-01-30T02:08:04.368Z,15.47
2019-01-30T02:10:31.928Z,13.63
2019-01-30T02:12:59.387Z,13.87
2019-01-30T02:15:26.884Z,13.60
2019-01-30T02:17:54.365Z,13.43
2019-01-30T02:20:24.694Z,13.20
2019-01-30T02:22:52.213Z,13.57
2019-01-30T02:25:19.740Z,13.60
2019-01-30T02:27:47.290Z,12.37
2019-01-30T02:30:20.346Z,14.10
2019-01-30T02:32:47.860Z,13.10
2019-01-30T02:35:15.402Z,13.60
2019-01-30T02:37:43.070Z,15.00
2019-01-30T02:40:12.832Z,13.53
2019-01-30T02:42:40.432Z,11.87
2019-01-30T02:45:09.298Z,11.67
2019-01-30T02:47:36.868Z,14.03
2019-01-30T02:50:07.214Z,13.37
2019-01-30T02:52:34.878Z,14.53
2019-01-30T02:55:03.441Z,12.93
2019-01-30T02:57:31.315Z,14.00
2019-01-30T02:59:58.811Z,13.40
2019-01-30T03:02:26.243Z,13.03
2019-01-30T03:04:53.662Z,13.35
2019-01-30T03:07:21.084Z,13.48
2019-01-30T03:09:48.540Z,15.00
2019-01-30T03:12:16.123Z,15.33
2019-01-30T03:14:43.664Z,12.50
2019-01-30T03:17:11.167Z,14.00
2019-01-30T03:19:38.760Z,13.00
2019-01-30T03:22:06.210Z,14.07
2019-01-30T03:24:33.859Z,13.77
2019-01-30T03:27:01.307Z,13.03
2019-01-30T03:29:28.822Z,12.90
2019-01-30T03:31:56.368Z,13.20
2019-01-30T03:34:23.893Z,12.60
2019-01-30T03:36:51.371Z,13.68
2019-01-30T03:39:18.955Z,13.00
2019-01-30T03:41:46.535Z,12.80
2019-01-30T03:44:14.125Z,13.03
2019-01-30T03:46:41.944Z,12.90
2019-01-30T03:49:09.457Z,11.60
2019-01-30T03:51:36.916Z,14.00
2019-01-30T03:54:04.425Z,13.23
2019-01-30T03:56:32.052Z,12.30
2019-01-30T03:58:59.532Z,13.67
2019-01-30T04:01:31.010Z,13.70
2019-01-30T04:03:58.544Z,13.30
2019-01-30T04:06:26.096Z,13.83
2019-01-30T04:08:53.696Z,11.05
2019-01-30T04:11:21.286Z,13.00
2019-01-30T04:13:48.932Z,13.90
2019-01-30T04:16:16.661Z,12.40
2019-01-30T04:18:44.329Z,11.80
2019-01-30T04:21:11.942Z,14.23
2019-01-30T04:23:39.473Z,12.50
2019-01-30T04:26:06.989Z,13.80
2019-01-30T04:28:34.561Z,12.20
2019-01-30T04:31:02.214Z,11.70
2019-01-30T04:33:29.720Z,11.50
2019-01-30T04:35:57.223Z,13.10
2019-01-30T04:38:24.883Z,13.10
2019-01-30T04:40:52.343Z,13.20
2019-01-30T04:43:19.831Z,13.18
2019-01-30T04:45:47.515Z,12.20
2019-01-30T04:48:15.230Z,11.67
2019-01-30T04:50:42.593Z,13.00
2019-01-30T04:53:10.975Z,12.20
2019-01-30T04:55:38.763Z,13.13
2019-01-30T04:58:06.151Z,13.23
2019-01-30T05:00:33.662Z,12.85
2019-01-30T05:03:20.613Z,12.00
2019-01-30T05:05:48.278Z,12.63
2019-01-30T05:08:15.796Z,12.73
2019-01-30T05:10:43.192Z,12.05
2019-01-30T05:13:10.647Z,11.90
2019-01-30T05:15:38.561Z,13.03
2019-01-30T05:18:05.986Z,12.68
2019-01-30T05:20:33.509Z,11.97
2019-01-30T05:23:01.013Z,12.63
2019-01-30T05:25:29.860Z,12.82
2019-01-30T05:27:57.292Z,13.07
2019-01-30T05:30:47.287Z,13.00
2019-01-30T05:33:14.800Z,13.30
2019-01-30T05:35:42.480Z,12.83
2019-01-30T05:38:29.695Z,13.10
2019-01-30T05:40:57.258Z,14.90
2019-01-30T05:43:24.878Z,13.27
2019-01-30T05:45:52.341Z,13.53
2019-01-30T05:48:59.654Z,13.40
2019-01-30T05:51:27.214Z,11.73
2019-01-30T05:53:54.757Z,12.13
2019-01-30T05:56:22.239Z,11.67
2019-01-30T05:58:49.882Z,11.67
2019-01-30T06:01:17.522Z,12.73
2019-01-30T06:03:45.227Z,11.90
2019-01-30T06:06:12.801Z,13.70
2019-01-30T06:08:42.159Z,14.07
2019-01-30T06:11:12.155Z,14.90
2019-01-30T06:13:39.414Z,12.90
2019-01-30T06:16:07.018Z,13.95
2019-01-30T06:18:34.640Z,13.10
2019-01-30T06:21:02.326Z,13.53
2019-01-30T06:23:29.915Z,12.90
2019-01-30T06:25:57.436Z,13.57
2019-01-30T06:28:28.671Z,14.13
2019-01-30T06:30:54.741Z,13.97
2019-01-30T06:33:22.142Z,14.47
2019-01-30T06:35:49.645Z,14.40
2019-01-30T06:38:17.184Z,14.50
2019-01-30T06:40:44.903Z,12.10
2019-01-30T06:43:12.392Z,13.57
2019-01-30T06:45:39.978Z,14.75
2019-01-30T06:48:07.455Z,14.40
2019-01-30T06:50:34.951Z,13.70
2019-01-30T06:53:02.427Z,13.28
2019-01-30T06:55:29.979Z,13.10
2019-01-30T06:57:57.367Z,13.73
2019-01-30T07:00:25.872Z,14.17
2019-01-30T07:02:54.021Z,12.33
2019-01-30T07:05:21.465Z,12.25
2019-01-30T07:07:48.874Z,13.50
2019-01-30T07:10:18.531Z,12.83
2019-01-30T07:12:46.094Z,12.10
2019-01-30T07:15:13.598Z,12.63
2019-01-30T07:17:41.023Z,12.90
2019-01-30T07:20:09.026Z,11.80
2019-01-30T07:22:37.608Z,12.97
2019-01-30T07:25:06.400Z,12.37
2019-01-30T07:27:33.977Z,11.67
2019-01-30T07:30:02.591Z,13.08
2019-01-30T07:32:30.302Z,11.40
2019-01-30T07:34:57.686Z,11.13
2019-01-30T07:37:25.094Z,12.80
2019-01-30T07:39:52.506Z,11.43
2019-01-30T07:42:20.070Z,9.93
2019-01-30T07:44:50.840Z,11.65
2019-01-30T07:47:16.883Z,12.00
2019-01-30T07:49:44.430Z,12.63
2019-01-30T07:52:12.034Z,9.57
2019-01-30T07:54:39.478Z,11.60
2019-01-30T07:57:06.992Z,12.30
2019-01-30T07:59:34.457Z,10.43
2019-01-30T08:02:04.095Z,10.47
2019-01-30T08:04:31.787Z,10.98
2019-01-30T08:06:59.364Z,10.30
2019-01-30T08:09:26.981Z,11.50
2019-01-30T08:11:54.538Z,11.20
2019-01-30T08:14:22.120Z,11.17
2019-01-30T08:16:49.781Z,10.63
2019-01-30T08:19:17.463Z,10.63
2019-01-30T08:21:44.966Z,10.80
2019-01-30T08:24:12.534Z,11.00
2019-01-30T08:26:40.227Z,11.30
2019-01-30T08:29:08.364Z,14.90
2019-01-30T08:31:36.268Z,10.10
2019-01-30T08:34:23.506Z,12.10
2019-01-30T08:36:50.998Z,11.10
2019-01-30T08:39:18.650Z,11.80
2019-01-30T08:41:46.121Z,11.67
2019-01-30T08:44:13.584Z,11.03
2019-01-30T08:46:41.266Z,10.97
2019-01-30T08:49:08.940Z,12.13
2019-01-30T08:51:36.662Z,12.07
2019-01-30T08:54:04.572Z,11.53
2019-01-30T08:56:38.713Z,12.70
2019-01-30T08:59:01.448Z,10.73
2019-01-30T09:01:28.986Z,12.17
2019-01-30T09:03:56.326Z,12.40
2019-01-30T09:06:23.815Z,12.27
2019-01-30T09:08:51.290Z,12.80
2019-01-30T09:11:18.838Z,13.83
2019-01-30T09:13:46.329Z,12.73
2019-01-30T09:16:13.730Z,13.73
2019-01-30T09:18:41.381Z,14.33
2019-01-30T09:21:08.993Z,14.63
2019-01-30T09:23:36.539Z,13.43
2019-01-30T09:26:04.637Z,14.87
2019-01-30T09:28:32.162Z,14.37
2019-01-30T09:30:59.427Z,16.47
2019-01-30T09:33:26.846Z,15.97
2019-01-30T09:35:54.300Z,14.70
2019-01-30T09:38:21.834Z,17.70
2019-01-30T09:40:52.080Z,16.47
2019-01-30T09:43:19.786Z,14.30
2019-01-30T09:45:47.266Z,19.83
2019-01-30T09:48:14.656Z,14.67
2019-01-30T09:50:42.111Z,15.57
2019-01-30T09:53:09.603Z,13.40
2019-01-30T09:55:37.168Z,15.00
2019-01-30T09:58:05.930Z,14.03
2019-01-30T10:00:35.214Z,14.00
2019-01-30T10:03:02.747Z,13.57
2019-01-30T10:05:30.494Z,13.97
2019-01-30T10:07:57.934Z,14.00
2019-01-30T10:10:27.777Z,14.43
2019-01-30T10:12:55.330Z,14.97
2019-01-30T10:15:24.765Z,14.70
2019-01-30T10:17:52.171Z,14.40
2019-01-30T10:20:22.063Z,13.17
2019-01-30T10:22:49.589Z,13.50
2019-01-30T10:25:17.455Z,14.30
2019-01-30T10:27:44.990Z,13.70
2019-01-30T10:30:15.322Z,12.60
2019-01-30T10:32:42.835Z,12.27
2019-01-30T10:35:10.447Z,13.50
2019-01-30T10:37:38.017Z,12.60
2019-01-30T10:40:08.160Z,11.70
2019-01-30T10:42:35.687Z,13.70
2019-01-30T10:45:04.941Z,12.70
2019-01-30T10:47:32.306Z,13.87
2019-01-30T10:49:59.949Z,12.87
2019-01-30T10:52:49.442Z,11.70
2019-01-30T10:55:19.032Z,12.23
2019-01-30T10:57:47.999Z,13.20
2019-01-30T11:00:18.337Z,11.10
2019-01-30T11:02:46.528Z,11.20
2019-01-30T11:05:14.913Z,12.30
2019-01-30T11:07:45.784Z,13.37
2019-01-30T11:10:16.087Z,13.53
2019-01-30T11:12:44.517Z,11.73
2019-01-30T11:15:14.352Z,12.67
2019-01-30T11:17:41.757Z,13.13
2019-01-30T11:20:10.686Z,12.07
2019-01-30T11:22:38.440Z,14.07
2019-01-30T11:25:09.182Z,12.83
2019-01-30T11:27:36.771Z,12.13
2019-01-30T11:30:06.113Z,12.27
2019-01-30T11:32:33.606Z,11.93
2019-01-30T11:35:01.154Z,11.57
2019-01-30T11:37:28.749Z,10.37
2019-01-30T11:39:56.273Z,11.50
2019-01-30T11:42:23.788Z,12.60
2019-01-30T11:44:51.298Z,11.10
2019-01-30T11:47:18.771Z,11.17
2019-01-30T11:49:46.342Z,10.93
2019-01-30T11:52:13.830Z,11.97
2019-01-30T11:54:41.407Z,10.70
2019-01-30T11:57:08.918Z,10.03
2019-01-30T11:59:36.466Z,9.90
2019-01-30T12:02:04.859Z,10.17
2019-01-30T12:04:32.475Z,10.10
2019-01-30T12:07:00.042Z,9.80
2019-01-30T12:09:27.590Z,9.97
2019-01-30T12:11:55.117Z,11.60
2019-01-30T12:14:28.534Z,9.90
2019-01-30T12:16:56.010Z,10.47
2019-01-30T12:19:23.572Z,9.90
2019-01-30T12:21:50.985Z,10.37
2019-01-30T12:24:18.496Z,10.03
2019-01-30T12:26:46.140Z,10.33
2019-01-30T12:29:13.658Z,9.27
2019-01-30T12:31:41.162Z,10.67
2019-01-30T12:34:09.695Z,9.97
2019-01-30T12:36:37.230Z,10.70
2019-01-30T12:39:08.724Z,9.83
2019-01-30T12:41:36.431Z,9.37
2019-01-30T12:44:06.069Z,9.10
2019-01-30T12:46:33.571Z,9.63
2019-01-30T12:49:01.083Z,9.87
2019-01-30T12:51:29.667Z,9.57
2019-01-30T12:53:56.999Z,10.47
2019-01-30T12:56:24.482Z,11.20
2019-01-30T12:58:51.922Z,10.20
2019-01-30T13:01:19.249Z,10.50
2019-01-30T13:03:46.774Z,9.60
2019-01-30T13:06:14.318Z,11.10
2019-01-30T13:08:41.883Z,10.20
2019-01-30T13:11:09.474Z,9.60
2019-01-30T13:13:36.857Z,9.77
2019-01-30T13:16:04.622Z,11.70
2019-01-30T13:18:32.333Z,9.50
2019-01-30T13:20:59.911Z,9.83
2019-01-30T13:23:27.438Z,9.27
2019-01-30T13:25:55.965Z,11.47
2019-01-30T13:28:23.652Z,10.50
2019-01-30T13:30:51.070Z,10.27
2019-01-30T13:33:18.539Z,9.50
2019-01-30T13:35:46.102Z,10.60
2019-01-30T13:38:13.574Z,10.00
2019-01-30T13:40:41.499Z,10.00
2019-01-30T13:43:08.913Z,9.73
2019-01-30T13:45:36.421Z,10.97
2019-01-30T13:48:07.841Z,10.10
2019-01-30T13:50:35.383Z,9.63
2019-01-30T13:53:03.316Z,9.20
2019-01-30T13:55:30.904Z,9.87
2019-01-30T13:57:58.420Z,9.53
2019-01-30T14:00:29.093Z,10.60
2019-01-30T14:02:56.710Z,9.93
2019-01-30T14:05:24.313Z,9.63
2019-01-30T14:07:52.379Z,10.80
2019-01-30T14:10:19.998Z,9.83
2019-01-30T14:12:48.562Z,9.30
2019-01-30T14:15:18.264Z,9.87
2019-01-30T14:17:45.827Z,9.20
2019-01-30T14:20:14.246Z,11.00
2019-01-30T14:22:41.844Z,9.63
2019-01-30T14:25:10.339Z,9.60
2019-01-30T14:27:37.901Z,8.10
2019-01-30T14:30:11.708Z,9.80
2019-01-30T14:32:39.310Z,9.73
2019-01-30T14:35:10.777Z,9.60
2019-01-30T14:37:36.962Z,10.83
2019-01-30T14:40:06.096Z,12.50
2019-01-30T14:42:33.771Z,10.27
2019-01-30T14:45:01.567Z,9.83
2019-01-30T14:47:29.086Z,9.57
2019-01-30T14:49:59.897Z,9.50
2019-01-30T14:52:27.386Z,10.10
2019-01-30T14:54:55.016Z,9.80
2019-01-30T14:57:22.552Z,8.77
2019-01-30T14:59:50.186Z,9.33
2019-01-30T15:02:17.793Z,9.20
2019-01-30T15:04:45.475Z,9.70
2019-01-30T15:07:13.186Z,9.17
2019-01-30T15:09:40.943Z,10.07
2019-01-30T15:12:08.485Z,10.33
2019-01-30T15:14:36.007Z,10.60
2019-01-30T15:17:03.801Z,8.73
2019-01-30T15:19:31.422Z,8.97
2019-01-30T15:21:59.120Z,10.57
2019-01-30T15:24:26.945Z,9.17
2019-01-30T15:26:54.491Z,9.27
2019-01-30T15:29:22.116Z,9.67
2019-01-30T15:31:49.722Z,9.57
2019-01-30T15:34:17.383Z,9.03
2019-01-30T15:36:45.001Z,8.83
2019-01-30T15:39:12.637Z,9.67
2019-01-30T15:41:40.191Z,8.80
2019-01-30T15:44:10.761Z,9.73
2019-01-30T15:46:39.418Z,10.60
2019-01-30T15:49:07.925Z,9.43
2019-01-30T15:51:35.578Z,9.50
2019-01-30T15:54:03.620Z,10.30
2019-01-30T15:56:31.281Z,9.83
2019-01-30T15:58:58.905Z,9.07
2019-01-30T16:01:32.843Z,10.40
2019-01-30T16:04:00.282Z,10.17
2019-01-30T16:06:31.653Z,10.43
2019-01-30T16:08:59.157Z,11.70
2019-01-30T16:11:26.681Z,11.23
2019-01-30T16:13:54.241Z,11.03
2019-01-30T16:16:21.782Z,10.80
2019-01-30T16:18:49.227Z,10.97
2019-01-30T16:21:16.940Z,12.00
2019-01-30T16:23:44.487Z,11.97
2019-01-30T16:26:12.049Z,11.47
2019-01-30T16:28:39.673Z,10.80
2019-01-30T16:31:07.242Z,12.27
2019-01-30T16:33:34.831Z,11.67
2019-01-30T16:36:02.281Z,11.50
2019-01-30T16:38:29.848Z,12.77
2019-01-30T16:40:57.467Z,13.20
2019-01-30T16:43:25.002Z,13.40
2019-01-30T16:45:52.649Z,11.40
2019-01-30T16:48:20.083Z,13.50
2019-01-30T16:50:47.575Z,11.53
2019-01-30T16:53:15.284Z,12.80
2019-01-30T16:55:43.070Z,11.27
2019-01-30T16:58:11.385Z,12.97
2019-01-30T17:00:39.863Z,15.87
2019-01-30T17:03:07.510Z,14.07
2019-01-30T17:05:35.397Z,14.50
2019-01-30T17:08:03.474Z,12.10
2019-01-30T17:10:31.071Z,12.90
2019-01-30T17:12:58.409Z,12.30
2019-01-30T17:15:28.211Z,12.57
2019-01-30T17:17:55.646Z,14.10
2019-01-30T17:20:29.634Z,13.40
2019-01-30T17:22:57.134Z,12.80
2019-01-30T17:25:25.282Z,13.47
2019-01-30T17:28:14.134Z,14.00
2019-01-30T17:30:48.218Z,12.97
2019-01-30T17:33:19.201Z,13.67
2019-01-30T17:35:46.804Z,13.50
2019-01-30T17:38:14.249Z,13.97
2019-01-30T17:40:42.527Z,14.10
2019-01-30T17:43:11.313Z,13.77
2019-01-30T17:45:38.901Z,14.50
2019-01-30T17:48:10.574Z,14.73
2019-01-30T17:50:38.067Z,14.77
2019-01-30T17:53:05.679Z,14.47
2019-01-30T17:55:33.343Z,14.20
2019-01-30T17:58:05.413Z,13.73
2019-01-30T18:00:46.515Z,13.90
2019-01-30T18:03:13.118Z,14.73
2019-01-30T18:05:40.849Z,15.17
2019-01-30T18:08:08.158Z,14.93
2019-01-30T18:10:35.698Z,14.37
2019-01-30T18:13:03.467Z,15.43
2019-01-30T18:15:31.012Z,15.43
2019-01-30T18:17:58.597Z,14.50
2019-01-30T18:20:26.170Z,14.57
2019-01-30T18:22:53.989Z,14.97
2019-01-30T18:25:21.723Z,15.70
2019-01-30T18:27:49.222Z,13.97
2019-01-30T18:30:17.390Z,15.10
2019-01-30T18:32:45.066Z,14.60
2019-01-30T18:35:12.970Z,15.40
2019-01-30T18:37:40.326Z,15.03
2019-01-30T18:40:13.101Z,15.57
2019-01-30T18:42:40.698Z,16.03
2019-01-30T18:45:09.762Z,14.50
2019-01-30T18:47:38.357Z,15.77
2019-01-30T18:50:08.337Z,14.63
2019-01-30T18:52:36.093Z,14.97
2019-01-30T18:55:04.610Z,16.00
2019-01-30T18:57:32.022Z,15.93
2019-01-30T18:59:59.777Z,15.53
2019-01-30T19:02:27.449Z,15.70
2019-01-30T19:04:55.081Z,14.50
2019-01-30T19:07:22.859Z,15.17
2019-01-30T19:09:50.410Z,14.87
2019-01-30T19:12:17.950Z,16.90
2019-01-30T19:14:45.404Z,13.93
2019-01-30T19:17:13.087Z,14.20
2019-01-30T19:19:40.608Z,14.80
2019-01-30T19:22:10.294Z,14.73
2019-01-30T19:24:41.471Z,15.37
2019-01-30T19:27:09.241Z,14.27
2019-01-30T19:29:36.976Z,16.10
2019-01-30T19:32:04.636Z,16.27
2019-01-30T19:34:32.426Z,16.87
2019-01-30T19:37:03.577Z,17.13
2019-01-30T19:39:31.472Z,15.47
2019-01-30T19:41:58.999Z,15.97
2019-01-30T19:44:26.680Z,14.87
2019-01-30T19:46:55.950Z,16.60
2019-01-30T19:49:24.910Z,17.00
2019-01-30T19:51:53.252Z,15.87
2019-01-30T19:54:23.022Z,16.33
2019-01-30T19:56:50.834Z,14.83
2019-01-30T19:59:18.447Z,16.73
2019-01-30T20:01:45.992Z,16.20
2019-01-30T20:04:15.910Z,16.57
2019-01-30T20:06:43.508Z,16.80
2019-01-30T20:09:16.154Z,16.87
2019-01-30T20:11:43.915Z,18.30
2019-01-30T20:14:11.706Z,16.87
2019-01-30T20:16:40.192Z,16.60
2019-01-30T20:19:07.722Z,16.97
2019-01-30T20:21:35.343Z,16.97
2019-01-30T20:24:02.872Z,15.83
2019-01-30T20:26:30.590Z,17.67
2019-01-30T20:28:58.100Z,15.23
2019-01-30T20:31:25.963Z,16.67
2019-01-30T20:34:09.752Z,17.33
2019-01-30T20:36:29.753Z,16.73
2019-01-30T20:38:58.324Z,16.60
2019-01-30T20:41:31.488Z,15.90
2019-01-30T20:44:00.455Z,18.13
2019-01-30T20:46:29.401Z,16.07
2019-01-30T20:48:57.535Z,15.13
2019-01-30T20:51:26.274Z,16.93
2019-01-30T20:53:54.914Z,16.80
2019-01-30T20:56:26.661Z,17.27
2019-01-30T20:58:58.717Z,17.50
2019-01-30T21:01:26.466Z,16.97
2019-01-30T21:03:58.669Z,16.27
2019-01-30T21:06:28.169Z,16.77
2019-01-30T21:08:56.080Z,17.27
2019-01-30T21:11:24.697Z,17.33
2019-01-30T21:13:59.339Z,16.40
2019-01-30T21:16:47.361Z,18.67
2019-01-30T21:19:17.164Z,16.57
2019-01-30T21:21:45.828Z,17.43
2019-01-30T21:24:36.717Z,19.20
2019-01-30T21:27:06.615Z,17.63
2019-01-30T21:29:35.283Z,18.27
2019-01-30T21:32:04.701Z,17.20
2019-01-30T21:34:35.415Z,18.00
2019-01-30T21:37:06.555Z,17.37
2019-01-30T21:39:36.681Z,18.80
2019-01-30T21:42:12.663Z,19.67
2019-01-30T21:44:40.248Z,18.23
2019-01-30T21:47:07.899Z,18.00
2019-01-30T21:49:35.500Z,19.30
2019-01-30T21:52:03.111Z,18.50
2019-01-30T21:54:30.855Z,20.17
2019-01-30T21:56:58.378Z,19.83
2019-01-30T21:59:25.810Z,19.30
2019-01-30T22:01:53.375Z,19.77
2019-01-30T22:04:20.946Z,19.50
2019-01-30T22:06:48.469Z,20.30
2019-01-30T22:09:16.231Z,20.93
2019-01-30T22:11:43.790Z,20.20
2019-01-30T22:14:11.181Z,20.47
2019-01-30T22:16:38.624Z,18.97
2019-01-30T22:19:06.266Z,19.67
2019-01-30T22:21:33.819Z,20.20
2019-01-30T22:24:05.503Z,22.00
2019-01-30T22:26:30.906Z,21.63
2019-01-30T22:28:59.478Z,22.80
2019-01-30T22:31:27.016Z,20.80
2019-01-30T22:33:54.543Z,22.43
2019-01-30T22:36:22.111Z,21.53
2019-01-30T22:38:49.660Z,19.87
2019-01-30T22:41:17.261Z,20.93
2019-01-30T22:43:45.161Z,20.97
2019-01-30T22:46:12.726Z,20.53
2019-01-30T22:48:40.290Z,21.83
2019-01-30T22:51:07.827Z,22.93
2019-01-30T22:53:35.287Z,22.33
2019-01-30T22:56:03.021Z,22.13
2019-01-30T22:58:30.410Z,22.27
2019-01-30T23:01:23.806Z,22.83
2019-01-30T23:04:33.318Z,23.17
2019-01-30T23:07:52.247Z,22.13
2019-01-30T23:10:54.374Z,23.27
2019-01-30T23:13:39.578Z,21.87
2019-01-30T23:16:31.326Z,23.33
2019-01-30T23:19:19.328Z,24.00
2019-01-30T23:22:09.378Z,22.57
2019-01-30T23:25:30.989Z,23.50
2019-01-30T23:28:05.590Z,22.80
2019-01-30T23:30:45.637Z,21.83
2019-01-30T23:33:42.528Z,23.20
2019-01-30T23:36:54.621Z,23.57
2019-01-30T23:39:59.573Z,24.20
2019-01-30T23:43:11.085Z,25.20
2019-01-30T23:46:14.459Z,24.40
2019-01-30T23:48:53.090Z,24.17
2019-01-30T23:52:14.154Z,24.90
2019-01-30T23:55:20.697Z,25.67
2019-01-30T23:58:30.047Z,25.07
